Address 0xdbfbce49cab2592ac74c0618ade83020a8bec045 4

 

Overview

Balance:
0.09619567256122492 ETH

ETH Value:
$155.25 (@ $1,613.94/ETH)
Txn Hash Method
Block
From
To
Value [Txn Fee]
0x6476ce17b8e57498f1cd2ae96d4866c7a62d9f1a464e3973eb58ec1783cdcdcdExchange534936612023-01-16 15:15:1713 days 31 mins ago0xdbfbce49cab2592ac74c0618ade83020a8bec045OUT 0x960ea3e3c7fb317332d990873d354e18d76455900 ETH0.00028492
0x4ddef5afc87520263908dec4d94a0c3ebbad68a19b39a435bae55725098293fdExchange534936422023-01-16 15:15:1313 days 31 mins ago0xdbfbce49cab2592ac74c0618ade83020a8bec045OUT 0x960ea3e3c7fb317332d990873d354e18d76455900 ETH0.00028493
0x5f227df727399c4f79c11326d266a1969d449253fb5e72705cb3fff58124f2e0Exchange534936342023-01-16 15:15:1113 days 31 mins ago0xdbfbce49cab2592ac74c0618ade83020a8bec045OUT 0x960ea3e3c7fb317332d990873d354e18d76455900 ETH0.00035142
0xa735f1ef0cdcdba43baf1da74db06c0dd8df2ec5fc8fc966ee69ba812753cf2aExchange534936192023-01-16 15:15:0713 days 31 mins ago0xdbfbce49cab2592ac74c0618ade83020a8bec045OUT 0x960ea3e3c7fb317332d990873d354e18d76455900 ETH0.00035113
0xc147cf9375a6119a9c6abd317c97835b5bc26796d006de312458275f0675ae43Exchange534933422023-01-16 15:13:5613 days 32 mins ago0xdbfbce49cab2592ac74c0618ade83020a8bec045OUT 0x960ea3e3c7fb317332d990873d354e18d76455900 ETH0.00033922
0xc9b7b30fdd0b1af72b7c65f866a7a480b6787df1a1c3b0c0e71b266aaff21d9fExchange534931012023-01-16 15:12:4813 days 33 mins ago0xdbfbce49cab2592ac74c0618ade83020a8bec045OUT 0x960ea3e3c7fb317332d990873d354e18d76455900 ETH0.00033918
0x0ae1886ff833c4489eb07a33b286e94d0b6f99fb1c6719ce44d03c10cba0dd5aExchange534927332023-01-16 15:11:0013 days 35 mins ago0xdbfbce49cab2592ac74c0618ade83020a8bec045OUT 0x960ea3e3c7fb317332d990873d354e18d76455900 ETH0.00034579
0x237cebdcb3157bfbb8a3e82cd24d3d90195455f07696457edcd28ae430fe39c4Exchange534848882023-01-16 14:26:4113 days 1 hr ago0xdbfbce49cab2592ac74c0618ade83020a8bec045OUT 0x960ea3e3c7fb317332d990873d354e18d76455900 ETH0.00030955
0x8d794ad8f588afe8ade03b8820ce55eae66e34da36dd6b7814d036b9caef415dExchange534848772023-01-16 14:26:3813 days 1 hr ago0xdbfbce49cab2592ac74c0618ade83020a8bec045OUT 0x960ea3e3c7fb317332d990873d354e18d76455900 ETH0.00030957
0x4a993293df81ec06fad0d8d569a21b3ea990ec332394ca1e3472a7ddfa223837Exchange534832942023-01-16 14:18:2013 days 1 hr ago0xdbfbce49cab2592ac74c0618ade83020a8bec045OUT 0x960ea3e3c7fb317332d990873d354e18d76455900 ETH0.00031871
0x313071e9d8bf22664c1871f813e7dd488d18ff823e6196537fb13a9a9a14308aExchange534832882023-01-16 14:18:1813 days 1 hr ago0xdbfbce49cab2592ac74c0618ade83020a8bec045OUT 0x960ea3e3c7fb317332d990873d354e18d76455900 ETH0.00030899
0x65a2b1557064c7da8c3c996ee924041e9891a9d0ea277dc202c8e45f03802ae8Exchange534831002023-01-16 14:17:1813 days 1 hr ago0xdbfbce49cab2592ac74c0618ade83020a8bec045OUT 0x960ea3e3c7fb317332d990873d354e18d76455900 ETH0.00025162
0x4fae03b52be349579cb92258a1971db9686b4fed1a7ad7a1977e17fc55521764Exchange534830942023-01-16 14:17:1713 days 1 hr ago0xdbfbce49cab2592ac74c0618ade83020a8bec045OUT 0x960ea3e3c7fb317332d990873d354e18d76455900 ETH0.00030898
0x4a9cac33c8e47581499e97d6c49c1968077a756864ea6052cc386386ae6bccd1Exchange534696052023-01-16 12:59:3313 days 2 hrs ago0xdbfbce49cab2592ac74c0618ade83020a8bec045OUT 0x960ea3e3c7fb317332d990873d354e18d76455900 ETH0.00031556
0x9b3bee66566a753aea4d03dbc3dce3b5d72fcdeeeed2c1e79d37aa82130a74bcExchange534204972023-01-16 8:08:5213 days 7 hrs ago0xdbfbce49cab2592ac74c0618ade83020a8bec045OUT 0x960ea3e3c7fb317332d990873d354e18d76455900 ETH0.00024184
0xb72d1b8c22ac65aaaa850a4bef6ed8f77fa9ab36fb089a3f11f8912ee449881dExchange534204792023-01-16 8:08:4713 days 7 hrs ago0xdbfbce49cab2592ac74c0618ade83020a8bec045OUT 0x960ea3e3c7fb317332d990873d354e18d76455900 ETH0.00024338
0x882edb794a09cf462464309772293c6abfabcb7f46e066a281c88c0bdfb5b1a7Exchange534204592023-01-16 8:08:4213 days 7 hrs ago0xdbfbce49cab2592ac74c0618ade83020a8bec045OUT 0x960ea3e3c7fb317332d990873d354e18d76455900 ETH0.00030533
0x0d4108bcecfcd8381d98f3c27b1ab050bf89884f42b39d49a862104219ac9365Exchange534204502023-01-16 8:08:4013 days 7 hrs ago0xdbfbce49cab2592ac74c0618ade83020a8bec045OUT 0x960ea3e3c7fb317332d990873d354e18d76455900 ETH0.00030534
0x56340184e712f93ad66d6323785ad2b9014891551a95a71cfb4e635f4a183b0bExchange534204312023-01-16 8:08:3513 days 7 hrs ago0xdbfbce49cab2592ac74c0618ade83020a8bec045OUT 0x960ea3e3c7fb317332d990873d354e18d76455900 ETH0.0003429
0x6b11fe35e9883db9b66b52ecd79e7d08e41929ec5e4e0d263222aa0c9dcb514bExchange534204112023-01-16 8:08:2913 days 7 hrs ago0xdbfbce49cab2592ac74c0618ade83020a8bec045OUT 0x960ea3e3c7fb317332d990873d354e18d76455900 ETH0.00029822
0xadf53527003cf1205ace02552f5af32b9111f2378251c96f0c97b05a7409a7bbExchange534175322023-01-16 7:49:4913 days 7 hrs ago0xdbfbce49cab2592ac74c0618ade83020a8bec045OUT 0x960ea3e3c7fb317332d990873d354e18d76455900 ETH0.00031384
0xf40fe734f9a27d7435c65f92894485c037dbfc73d56f092b0c49e965582f4621Exchange533651502023-01-16 1:28:3813 days 14 hrs ago0xdbfbce49cab2592ac74c0618ade83020a8bec045OUT 0x960ea3e3c7fb317332d990873d354e18d76455900 ETH0.0003251
0x4e93196b2a326c0ec34624cd7f48775bd91b6931070cf600c17394e5f794c1d5Exchange533643602023-01-16 1:23:0513 days 14 hrs ago0xdbfbce49cab2592ac74c0618ade83020a8bec045OUT 0x960ea3e3c7fb317332d990873d354e18d76455900 ETH0.00032257
0x1800d77192b1e073700e071fabe4f7089c9cb9c0ce7742bb3965a3eb77ea2813Exchange533582042023-01-16 0:39:2113 days 15 hrs ago0xdbfbce49cab2592ac74c0618ade83020a8bec045OUT 0x960ea3e3c7fb317332d990873d354e18d76455900 ETH0.00038962
0x20211e9be939bcd44fcb3ffd6eca40f344f260c62dde769ef4fb7142d843ce44Exchange533581892023-01-16 0:39:1213 days 15 hrs ago0xdbfbce49cab2592ac74c0618ade83020a8bec045OUT 0x960ea3e3c7fb317332d990873d354e18d76455900 ETH0.00037892
[ Download CSV Export 
Latest 8 internal transactions
Parent Txn Hash Block From To Value
0x198c9b58908f175632acad7a694918865fd7bf04438749a53e54597392e786a1217094582022-08-28 14:26:51154 days 1 hr ago 0x82af49447d8a07e3bd95bd0d56f35241523fbab10xdbfbce49cab2592ac74c0618ade83020a8bec0450.825172298339835475 ETH
0xcb1c1bcfcfadc28bccfbac5db9a67f5dcc65bcecbe040e713caec9ec3668babe157214332022-06-25 5:52:42218 days 9 hrs ago 0x82af49447d8a07e3bd95bd0d56f35241523fbab10xdbfbce49cab2592ac74c0618ade83020a8bec0456 ETH
0x1f13d3faea0a0fdb841a214ab1b36f24cab56496445561dcf9074bef9e891630151998172022-06-20 22:03:51222 days 17 hrs ago 0x82af49447d8a07e3bd95bd0d56f35241523fbab10xdbfbce49cab2592ac74c0618ade83020a8bec04530 ETH
0xa442f9144de9624b6b50085d0cffdcfd7aaa5353066fbf75a123de7533a44cb8151486842022-06-20 9:10:28223 days 6 hrs ago 0x82af49447d8a07e3bd95bd0d56f35241523fbab10xdbfbce49cab2592ac74c0618ade83020a8bec04525 ETH
0x50eb31e457afc7f85608527d4cdb160b1c168f91a5b8ae442b3b2b2ff6b4caa4126291772022-05-21 10:56:49253 days 4 hrs ago 0xdbfbce49cab2592ac74c0618ade83020a8bec045 0x8b194beae1d3e0788a1a35173978001acdfba6680 ETH
0xc7a7f1998e5e572a03261188527f36e7fcd439814d2c499a6a8435d947c006d6117231572022-05-10 18:28:16263 days 21 hrs ago 0xdbfbce49cab2592ac74c0618ade83020a8bec045 0xf31e1ae27e7cd057c1d6795a5a083e0453d39b500 ETH
0x8dd03f6acc8845c7ce2d95cb6ddd6d4bd4b4aa99fbd0417978bb649ad625fe24117230882022-05-10 18:27:40263 days 21 hrs ago 0xdbfbce49cab2592ac74c0618ade83020a8bec045 0x8b194beae1d3e0788a1a35173978001acdfba6680 ETH
0x515ef47f808a958f7ef7b4960ae1e62e661d15d64612cda4b3e58fa0eb399872117230562022-05-10 18:27:09263 days 21 hrs ago 0xdbfbce49cab2592ac74c0618ade83020a8bec045 0x8b194beae1d3e0788a1a35173978001acdfba6684.5 ETH
[ Download CSV Export 
Loading

Contract Name:
0 ETH

Compiler Version
0

Optimization Enabled:
0 ETH

Other Settings:
-NA-
Block Transaction Gas Used Reward
Age Block Fee Address BC Fee Address Voting Power Jailed Incoming
Block Uncle Number Difficulty Gas Used Reward
Loading
Make sure to use the "Vote Down" button for any spammy posts, and the "Vote Up" for interesting conversations.